Time;durP1;ratioP1;P1;durP2;ratioP2;P2;SDS_P1;SDS_P2;PMS_P1;PMS_P2;Temp;Humidity;BMP_temperature;BMP_pressure;BME280_temperature;BME280_humidity;BME280_pressure;Samples;Min_cycle;Max_cycle;Signal;HPM_P1;HPM_P2
2022/01/18 00:01:45;;;;;;;188.13;151.70;;;;;;;14.85;32.80;95213.91;5007102;28;20050;-74
2022/01/18 00:04:11;;;;;;;192.27;156.77;;;;;;;14.82;32.89;95212.78;5013722;28;20390;-74
2022/01/18 00:06:40;;;;;;;187.95;152.75;;;;;;;14.82;32.81;95213.56;5017293;28;20234;-74
2022/01/18 00:09:06;;;;;;;189.13;152.55;;;;;;;14.81;32.87;95217.41;5009570;28;20045;-75
2022/01/18 00:11:39;;;;;;;186.85;152.65;;;;;;;14.81;32.80;95214.72;5008024;28;20068;-74
2022/01/18 00:14:13;;;;;;;183.13;148.57;;;;;;;14.82;33.21;95216.25;5015143;28;20647;-76
2022/01/18 00:16:59;;;;;;;193.57;157.27;;;;;;;14.82;33.10;95213.56;5006571;28;20060;-76
2022/01/18 00:19:24;;;;;;;192.23;156.75;;;;;;;14.82;32.82;95213.56;5008533;28;20144;-73
2022/01/18 00:22:09;;;;;;;187.00;152.43;;;;;;;14.83;32.83;95211.63;5007745;28;20492;-74
2022/01/18 00:24:35;;;;;;;189.93;151.95;;;;;;;14.80;32.84;95212.44;5009306;28;20092;-74
2022/01/18 00:27:02;;;;;;;194.45;158.63;;;;;;;14.77;32.88;95224.00;5008363;28;20431;-74
2022/01/18 00:29:29;;;;;;;190.25;154.85;;;;;;;14.78;33.03;95229.00;5010791;28;20405;-74
2022/01/18 00:32:24;;;;;;;195.75;156.60;;;;;;;14.79;32.82;95225.13;5012693;28;20081;-74
2022/01/18 00:34:45;;;;;;;194.10;156.00;;;;;;;14.80;33.02;95234.72;5004561;28;20096;-75
2022/01/18 00:39:38;;;;;;;186.73;151.30;;;;;;;14.82;33.04;95237.78;5011946;28;20045;-74
2022/01/18 00:42:04;;;;;;;188.02;152.75;;;;;;;14.82;32.84;95243.19;5008927;28;20041;-74
2022/01/18 00:44:30;;;;;;;201.38;162.27;;;;;;;14.81;32.67;95249.72;5007750;28;20719;-76
2022/01/18 00:46:55;;;;;;;187.95;151.18;;;;;;;14.79;33.07;95243.97;5008394;28;20587;-74
2022/01/18 00:49:21;;;;;;;185.98;151.00;;;;;;;14.80;33.07;95242.06;5009427;28;20551;-75
2022/01/18 00:51:53;;;;;;;187.55;152.38;;;;;;;14.82;33.02;95239.72;5010015;28;20042;-75
2022/01/18 00:54:28;;;;;;;195.23;158.40;;;;;;;14.81;32.94;95243.56;5014535;28;20053;-75
2022/01/18 00:56:55;;;;;;;191.48;154.48;;;;;;;14.81;32.84;95241.66;5007920;28;20508;-74
2022/01/18 00:59:21;;;;;;;197.25;159.25;;;;;;;14.80;33.00;95237.44;5009087;28;20042;-74
2022/01/18 01:01:47;;;;;;;191.73;154.98;;;;;;;14.80;32.71;95250.91;5006206;28;20581;-75
2022/01/18 01:04:12;;;;;;;188.27;152.90;;;;;;;14.79;32.91;95243.97;5008951;28;20053;-75
2022/01/18 01:06:38;;;;;;;192.27;158.38;;;;;;;14.79;32.87;95251.28;5007811;28;20052;-74
2022/01/18 01:09:04;;;;;;;184.65;148.60;;;;;;;14.78;33.13;95250.53;5008066;28;20037;-75
2022/01/18 01:11:32;;;;;;;191.45;155.35;;;;;;;14.77;33.05;95259.00;4988061;28;20049;-75
2022/01/18 01:14:00;;;;;;;193.52;154.57;;;;;;;14.77;33.10;95254.38;5010105;28;20081;-74
2022/01/18 01:45:36;;;;;;;187.18;152.00;;;;;;;14.79;33.15;95280.91;5008916;28;20064;-74
2022/01/18 01:48:02;;;;;;;191.65;155.52;;;;;;;14.78;32.91;95285.53;5005923;28;20513;-74
2022/01/18 01:50:40;;;;;;;191.70;155.05;;;;;;;14.79;33.11;95286.31;5007585;28;20045;-75
2022/01/18 01:53:06;;;;;;;185.48;150.18;;;;;;;14.76;33.13;95277.09;5006032;28;20318;-74
2022/01/18 01:55:32;;;;;;;190.50;155.48;;;;;;;14.76;33.10;95285.19;5006885;28;20508;-74
2022/01/18 01:57:57;;;;;;;187.85;152.23;;;;;;;14.76;33.17;95290.56;5007677;28;20049;-74
2022/01/18 02:00:24;;;;;;;189.55;152.80;;;;;;;14.74;33.08;95290.19;5007381;28;20092;-75
2022/01/18 02:02:49;;;;;;;187.00;152.65;;;;;;;14.73;33.12;95288.66;5009923;28;20042;-74
2022/01/18 02:05:15;;;;;;;187.95;153.77;;;;;;;14.74;33.07;95297.50;5007382;28;20061;-75
2022/01/18 02:07:41;;;;;;;191.35;154.90;;;;;;;14.74;33.16;95287.50;5008682;28;20502;-75
2022/01/18 02:10:07;;;;;;;187.10;151.60;;;;;;;14.75;32.98;95291.72;5007743;28;20454;-75
2022/01/18 02:12:39;;;;;;;192.25;156.63;;;;;;;14.75;33.14;95282.88;5006989;28;20486;-76
2022/01/18 02:15:18;;;;;;;190.27;153.93;;;;;;;14.75;33.11;95280.19;4991306;28;20482;-75
2022/01/18 02:23:23;;;;;;;196.13;157.80;;;;;;;14.75;33.03;95269.41;5008515;28;20145;-75
2022/01/18 02:25:49;;;;;;;196.65;159.32;;;;;;;14.74;33.26;95267.88;5005529;28;20045;-74
2022/01/18 02:28:16;;;;;;;189.10;152.95;;;;;;;14.73;33.20;95255.59;5007599;28;20305;-74
2022/01/18 02:30:44;;;;;;;190.15;153.50;;;;;;;14.73;33.19;95258.28;5007984;28;20045;-74
2022/01/18 02:33:11;;;;;;;187.23;151.15;;;;;;;14.73;33.03;95248.28;4995089;28;20064;-74
2022/01/18 02:35:37;;;;;;;186.65;150.75;;;;;;;14.72;33.13;95252.13;5007489;28;20116;-76
2022/01/18 02:38:04;;;;;;;183.15;149.00;;;;;;;14.72;33.29;95254.06;5010458;28;20494;-74
2022/01/18 02:40:30;;;;;;;187.30;152.43;;;;;;;14.72;33.28;95251.38;5006540;28;20524;-75
2022/01/18 02:43:46;;;;;;;189.40;154.57;;;;;;;14.72;33.24;95256.75;5005147;28;20210;-74
2022/01/18 02:45:48;;;;;;;198.40;160.02;;;;;;;14.72;33.33;95256.75;5004452;28;20054;-75
2022/01/18 02:48:15;;;;;;;190.35;153.55;;;;;;;14.72;32.94;95256.75;5002838;28;20155;-74
2022/01/18 02:50:40;;;;;;;190.57;154.20;;;;;;;14.71;33.28;95252.53;5004978;28;20519;-76
2022/01/18 02:53:06;;;;;;;190.32;154.93;;;;;;;14.71;33.28;95260.63;5005364;28;20045;-74
2022/01/18 02:55:31;;;;;;;192.57;156.90;;;;;;;14.71;33.27;95260.63;5008027;28;20739;-74
2022/01/18 02:58:03;;;;;;;188.70;153.45;;;;;;;14.72;33.33;95256.75;5004822;28;20623;-74
2022/01/18 03:03:10;;;;;;;185.13;149.10;;;;;;;14.71;33.22;95260.63;5007636;28;20045;-76
2022/01/18 03:03:21;;;;;;;194.70;158.00;;;;;;;14.70;33.19;95249.09;5002861;28;21471;-75
2022/01/18 03:05:47;;;;;;;204.10;163.57;;;;;;;14.71;33.27;95249.84;5005430;28;20042;-74
2022/01/18 03:08:13;;;;;;;188.25;151.98;;;;;;;14.72;33.29;95240.59;5003657;28;20057;-76
2022/01/18 03:10:40;;;;;;;195.80;156.85;;;;;;;14.71;33.18;95247.91;5005631;28;20066;-74
2022/01/18 03:13:07;;;;;;;189.52;153.25;;;;;;;14.73;33.27;95250.97;5005693;28;20049;-74
2022/01/18 03:15:34;;;;;;;190.07;153.43;;;;;;;14.74;33.10;95249.03;5002812;28;20141;-75
2022/01/18 03:18:01;;;;;;;187.77;152.05;;;;;;;14.74;33.11;95252.50;5006835;28;20045;-75
2022/01/18 03:20:27;;;;;;;199.50;161.00;;;;;;;14.72;33.33;95232.53;5005128;28;20049;-74
2022/01/18 03:22:53;;;;;;;189.80;153.75;;;;;;;14.74;33.11;95243.66;5005623;28;20038;-74
2022/01/18 03:28:14;;;;;;;191.70;153.18;;;;;;;14.74;32.99;95255.19;4986875;28;20406;-74
2022/01/18 03:30:42;;;;;;;188.88;154.80;;;;;;;14.72;33.29;95262.91;4993693;28;20136;-76
2022/01/18 03:33:11;;;;;;;189.05;151.65;;;;;;;14.72;33.35;95262.91;5008439;28;20076;-74
2022/01/18 03:35:37;;;;;;;196.20;158.65;;;;;;;14.69;33.16;95271.78;5009844;28;20623;-75
2022/01/18 03:38:03;;;;;;;186.68;151.80;;;;;;;14.69;33.30;95273.72;5012194;28;20045;-76
2022/01/18 03:40:29;;;;;;;190.55;153.55;;;;;;;14.67;33.17;95265.28;5009945;28;20156;-75
2022/01/18 03:42:55;;;;;;;189.13;151.55;;;;;;;14.67;33.42;95279.50;5008635;28;20105;-75
2022/01/18 03:45:24;;;;;;;191.15;154.68;;;;;;;14.67;33.36;95278.75;5007767;28;20775;-75
2022/01/18 03:47:51;;;;;;;192.95;154.80;;;;;;;14.64;33.46;95280.31;5009844;28;20726;-75
2022/01/18 03:50:17;;;;;;;190.00;154.02;;;;;;;14.63;33.42;95284.16;5009618;28;20060;-74
2022/01/18 03:52:44;;;;;;;186.95;150.98;;;;;;;14.65;33.36;95273.75;5008802;28;20153;-76
2022/01/18 03:55:13;;;;;;;197.32;158.35;;;;;;;14.65;33.48;95276.44;5005888;28;20087;-75
2022/01/18 03:57:39;;;;;;;194.80;158.48;;;;;;;14.65;33.49;95281.06;5010976;28;20131;-74
2022/01/18 04:00:09;;;;;;;192.52;155.65;;;;;;;14.66;33.44;95282.59;4993094;28;20169;-75
2022/01/18 04:02:34;;;;;;;192.93;156.00;;;;;;;14.65;33.44;95278.38;5007716;28;20057;-75
2022/01/18 04:05:01;;;;;;;193.88;156.80;;;;;;;14.65;33.51;95276.44;4995638;28;20599;-75
2022/01/18 04:07:27;;;;;;;192.40;155.65;;;;;;;14.64;33.57;95266.84;5008347;28;20045;-76
2022/01/18 04:09:52;;;;;;;190.35;152.77;;;;;;;14.65;33.55;95265.69;5008523;28;20045;-74
2022/01/18 04:12:18;;;;;;;192.65;156.38;;;;;;;14.67;33.55;95259.88;5008143;28;20046;-74
2022/01/18 04:14:44;;;;;;;186.35;151.18;;;;;;;14.67;33.41;95276.81;5008958;28;20077;-76
2022/01/18 04:26:00;;;;;;;189.52;151.63;;;;;;;14.66;33.42;95271.81;5005666;28;20042;-74
2022/01/18 04:31:03;;;;;;;192.02;154.30;;;;;;;14.66;33.34;95279.91;5005753;28;20049;-74
2022/01/18 04:33:29;;;;;;;195.52;157.57;;;;;;;14.67;33.41;95278.75;5009163;28;20056;-74
2022/01/18 04:35:54;;;;;;;197.75;158.82;;;;;;;14.66;33.34;95285.28;5005374;28;20053;-76
2022/01/18 04:38:20;;;;;;;189.70;152.80;;;;;;;14.67;33.20;95289.50;5008629;28;20034;-74
2022/01/18 04:40:47;;;;;;;184.45;149.27;;;;;;;14.67;33.33;95287.56;5007527;28;20738;-76
2022/01/18 04:48:31;;;;;;;200.40;160.82;;;;;;;14.68;33.39;95304.50;5006993;28;20138;-76
2022/01/18 04:51:04;;;;;;;185.30;148.77;;;;;;;14.67;33.58;95305.66;5008523;28;20062;-74
2022/01/18 04:53:32;;;;;;;189.90;153.65;;;;;;;14.65;33.63;95308.75;5004074;28;20061;-74
2022/01/18 04:56:06;;;;;;;184.88;150.45;;;;;;;14.64;33.56;95311.84;5005465;28;20085;-73
2022/01/18 04:58:32;;;;;;;194.05;154.90;;;;;;;14.64;33.58;95299.16;5010963;28;20100;-74
2022/01/18 05:01:00;;;;;;;185.05;148.75;;;;;;;14.67;33.53;95311.03;5009052;28;20053;-74
2022/01/18 05:03:29;;;;;;;194.45;157.48;;;;;;;14.67;33.54;95314.50;5009970;28;20781;-73
2022/01/18 05:05:58;;;;;;;202.10;161.73;;;;;;;14.68;33.39;95304.50;5007662;28;20045;-74
2022/01/18 05:08:24;;;;;;;192.10;153.15;;;;;;;14.68;33.32;95310.66;5006952;28;20037;-73
2022/01/18 05:10:53;;;;;;;187.98;151.88;;;;;;;14.69;33.43;95309.47;5008816;28;20057;-73
2022/01/18 05:16:22;;;;;;;186.63;149.60;;;;;;;14.72;33.21;95306.00;5009549;28;20050;-74
2022/01/18 05:21:34;;;;;;;184.15;147.95;;;;;;;14.72;33.44;95306.00;5007463;28;20053;-74
2022/01/18 05:24:00;;;;;;;187.13;148.88;;;;;;;14.74;33.26;95309.03;5006787;28;20076;-70
2022/01/18 05:26:28;;;;;;;195.05;156.27;;;;;;;14.76;33.39;95314.78;5006627;28;20129;-68
2022/01/18 05:28:54;;;;;;;192.63;155.55;;;;;;;14.76;33.24;95316.72;5006855;28;20119;-69
2022/01/18 05:31:20;;;;;;;187.75;151.00;;;;;;;14.77;33.31;95319.03;5007134;28;20046;-71
2022/01/18 05:33:47;;;;;;;197.57;157.90;;;;;;;14.77;33.33;95324.41;5009307;28;20056;-71
2022/01/18 05:36:13;;;;;;;197.40;159.40;;;;;;;14.76;33.63;95319.41;5006492;28;20049;-72
2022/01/18 05:38:39;;;;;;;197.43;159.65;;;;;;;14.78;33.32;95333.25;5009105;28;20433;-68
2022/01/18 05:41:06;;;;;;;191.05;155.88;;;;;;;14.78;33.44;95328.63;5008972;28;20049;-68
2022/01/18 05:43:32;;;;;;;190.02;153.23;;;;;;;14.80;33.44;95320.16;5008236;28;20383;-73
2022/01/18 05:45:58;;;;;;;187.45;152.10;;;;;;;14.79;33.49;95327.47;5006479;28;20045;-73
2022/01/18 05:48:24;;;;;;;184.85;149.50;;;;;;;14.78;33.57;95331.31;5006427;28;20514;-73
2022/01/18 05:50:50;;;;;;;187.35;152.77;;;;;;;14.79;33.41;95338.22;5007858;28;20056;-73
2022/01/18 05:53:16;;;;;;;190.75;155.63;;;;;;;14.78;33.38;95344.03;5008947;28;20541;-73
2022/01/18 05:55:41;;;;;;;206.85;165.48;;;;;;;14.78;33.58;95341.31;5006814;28;20144;-73
2022/01/18 05:58:07;;;;;;;183.60;149.45;;;;;;;14.79;33.58;95337.47;5009019;28;20049;-73
2022/01/18 06:00:33;;;;;;;187.10;151.18;;;;;;;14.79;33.57;95335.53;5006535;28;20419;-73
2022/01/18 06:08:09;;;;;;;189.63;152.13;;;;;;;14.83;33.77;95330.88;5006370;28;20049;-73
2022/01/18 06:10:35;;;;;;;188.10;151.45;;;;;;;14.84;33.54;95337.03;5006943;28;20050;-73
2022/01/18 06:13:02;;;;;;;183.75;149.10;;;;;;;14.85;33.49;95330.47;5005948;28;20056;-72
2022/01/18 06:15:28;;;;;;;188.88;153.05;;;;;;;14.83;33.37;95325.50;5006777;28;20041;-73
2022/01/18 06:17:54;;;;;;;186.00;151.30;;;;;;;14.86;33.23;95328.56;5008087;28;20045;-73
2022/01/18 06:20:20;;;;;;;188.13;154.88;;;;;;;14.87;33.33;95327.38;5009280;28;20042;-73
2022/01/18 06:22:45;;;;;;;182.23;147.32;;;;;;;14.90;33.34;95334.66;5006524;28;20129;-73
2022/01/18 06:25:11;;;;;;;185.98;151.23;;;;;;;14.90;33.34;95340.81;5007054;28;20315;-73
2022/01/18 06:27:37;;;;;;;187.15;153.20;;;;;;;14.90;33.34;95338.13;4996807;28;20053;-73
2022/01/18 06:30:09;;;;;;;186.07;152.48;;;;;;;14.91;33.34;95341.59;5008932;28;20092;-73
2022/01/18 06:32:37;;;;;;;189.73;154.52;;;;;;;14.91;33.34;95342.34;4996832;28;20481;-73
2022/01/18 06:35:03;;;;;;;182.48;149.23;;;;;;;14.92;33.31;95337.72;5006652;28;20585;-73
2022/01/18 06:37:29;;;;;;;191.73;156.20;;;;;;;14.92;33.15;95335.78;5007923;28;20324;-73
2022/01/18 06:39:57;;;;;;;184.80;151.02;;;;;;;14.92;33.11;95338.50;5007334;28;20497;-73
2022/01/18 06:42:24;;;;;;;186.75;153.00;;;;;;;14.94;33.22;95340.78;5006774;28;20145;-73
2022/01/18 06:44:51;;;;;;;185.55;150.20;;;;;;;14.92;33.24;95348.50;5008521;28;20061;-73
2022/01/18 06:47:16;;;;;;;187.32;154.13;;;;;;;14.91;33.26;95355.81;5004497;28;20107;-73
2022/01/18 06:49:42;;;;;;;183.30;148.18;;;;;;;14.94;33.37;95354.25;5006008;28;20045;-73
2022/01/18 06:52:08;;;;;;;188.25;154.30;;;;;;;14.92;33.31;95349.25;5006230;28;20046;-73
2022/01/18 06:54:33;;;;;;;182.65;150.68;;;;;;;14.94;33.22;95351.56;5008705;28;21123;-73
2022/01/18 06:56:59;;;;;;;190.55;154.52;;;;;;;14.92;33.08;95351.97;5006328;28;20087;-73
2022/01/18 06:59:24;;;;;;;181.73;148.35;;;;;;;14.94;33.26;95354.25;5005172;28;20041;-73
2022/01/18 07:01:50;;;;;;;187.88;153.10;;;;;;;14.93;33.26;95345.41;5005282;28;20073;-73
2022/01/18 07:04:16;;;;;;;187.25;154.15;;;;;;;14.94;33.51;95360.41;5008238;28;20049;-73
2022/01/18 07:06:41;;;;;;;191.60;154.63;;;;;;;14.92;33.45;95354.66;5013432;28;20133;-73
2022/01/18 07:09:07;;;;;;;185.10;149.02;;;;;;;14.93;33.43;95358.88;5009108;28;20418;-73
2022/01/18 07:11:32;;;;;;;195.40;159.02;;;;;;;14.94;33.46;95367.72;5008223;28;20463;-74
2022/01/18 07:13:58;;;;;;;188.40;152.52;;;;;;;14.95;33.16;95374.63;5007671;28;20137;-73
2022/01/18 07:16:23;;;;;;;189.10;154.30;;;;;;;14.95;33.24;95380.03;5008288;28;20084;-73
2022/01/18 07:18:49;;;;;;;187.60;154.30;;;;;;;14.96;33.25;95381.53;5010654;28;20034;-73
2022/01/18 07:21:14;;;;;;;186.77;151.10;;;;;;;14.94;33.42;95379.25;5013328;28;21383;-73
2022/01/18 07:23:40;;;;;;;187.98;154.57;;;;;;;14.95;33.32;95385.41;5011095;28;20041;-73
2022/01/18 07:26:05;;;;;;;191.45;156.05;;;;;;;14.94;33.28;95381.19;5012560;28;20053;-73
2022/01/18 07:28:31;;;;;;;186.93;152.32;;;;;;;14.92;33.62;95386.97;5013967;28;20421;-73
2022/01/18 07:30:57;;;;;;;187.85;154.20;;;;;;;14.94;33.33;95386.56;5010460;28;20481;-73
2022/01/18 07:33:23;;;;;;;184.85;151.00;;;;;;;14.93;33.24;95395.81;5011921;28;20041;-73
2022/01/18 07:35:49;;;;;;;199.57;163.25;;;;;;;14.92;33.52;95402.38;5009896;28;20045;-73
2022/01/18 07:38:18;;;;;;;189.30;153.38;;;;;;;14.93;33.32;95396.59;5012003;28;20410;-73
2022/01/18 07:40:48;;;;;;;189.15;156.65;;;;;;;14.94;33.35;95405.44;5010055;28;20477;-73
2022/01/18 07:43:19;;;;;;;187.57;152.60;;;;;;;14.94;33.21;95410.81;5013731;28;20099;-73
2022/01/18 07:45:46;;;;;;;201.40;163.43;;;;;;;14.95;33.32;95412.34;5008731;28;20100;-73
2022/01/18 07:48:12;;;;;;;182.35;150.57;;;;;;;14.94;33.38;95414.28;5010275;28;20049;-73
2022/01/18 07:50:40;;;;;;;184.00;151.00;;;;;;;14.96;33.40;95416.53;5010614;28;20084;-73
2022/01/18 07:53:06;;;;;;;189.80;156.00;;;;;;;14.96;33.29;95422.69;5012354;28;20052;-73
2022/01/18 07:55:31;;;;;;;200.43;165.35;;;;;;;14.96;33.31;95414.63;5011032;28;20486;-73
2022/01/18 07:57:59;;;;;;;188.60;154.45;;;;;;;14.96;33.33;95422.69;5008679;28;21399;-73
2022/01/18 08:00:25;;;;;;;187.95;151.63;;;;;;;14.96;33.31;95425.38;5009779;28;20041;-73
2022/01/18 08:02:50;;;;;;;186.55;153.93;;;;;;;14.97;33.35;95432.31;4999140;28;20069;-73
2022/01/18 08:05:16;;;;;;;196.00;160.30;;;;;;;14.96;33.28;95428.09;5010860;28;20504;-73
2022/01/18 08:07:42;;;;;;;190.93;155.80;;;;;;;14.97;33.47;95426.16;5009977;28;20068;-72
2022/01/18 08:10:10;;;;;;;185.73;151.05;;;;;;;14.97;33.27;95421.53;5006508;28;21623;-73
2022/01/18 08:12:36;;;;;;;210.57;170.25;;;;;;;14.97;33.23;95431.53;5004555;28;20068;-73
2022/01/18 08:15:12;;;;;;;193.93;157.43;;;;;;;14.95;33.31;95429.25;5001832;28;20064;-73
2022/01/18 08:17:39;;;;;;;192.65;156.95;;;;;;;14.98;33.20;95433.06;4998493;28;20213;-66
2022/01/18 08:20:05;;;;;;;197.07;160.05;;;;;;;14.98;33.28;95438.47;5006453;28;20865;-66
2022/01/18 08:22:30;;;;;;;204.70;167.25;;;;;;;14.98;33.57;95430.38;4998347;28;20049;-66
2022/01/18 08:24:56;;;;;;;203.55;166.55;;;;;;;14.97;33.37;95439.63;5000852;28;20155;-64
2022/01/18 08:27:22;;;;;;;205.77;167.95;;;;;;;14.95;33.09;95442.72;4999644;28;20038;-63
2022/01/18 08:29:47;;;;;;;205.02;165.52;;;;;;;14.96;33.51;95436.16;5000511;28;20109;-64
2022/01/18 08:32:14;;;;;;;196.25;158.85;;;;;;;14.93;33.59;95438.91;5001739;28;20049;-67
2022/01/18 08:34:39;;;;;;;192.48;154.32;;;;;;;14.91;33.63;95441.25;5008959;28;20053;-67
2022/01/18 08:37:05;;;;;;;204.80;166.18;;;;;;;14.92;33.46;95445.47;5002782;28;20105;-67
2022/01/18 08:39:30;;;;;;;192.50;158.10;;;;;;;14.93;33.70;95441.63;5006158;28;20053;-67
2022/01/18 08:41:56;;;;;;;195.15;159.07;;;;;;;14.94;33.63;95452.00;5008395;28;20076;-68
2022/01/18 08:44:21;;;;;;;204.82;167.60;;;;;;;14.95;33.62;95445.41;4995697;28;20110;-67
2022/01/18 08:46:47;;;;;;;194.40;156.15;;;;;;;14.95;33.75;95444.66;5004074;28;20046;-68
2022/01/18 08:49:12;;;;;;;192.80;158.35;;;;;;;14.94;33.58;95430.44;5009269;28;20195;-68
2022/01/18 08:51:38;;;;;;;191.23;155.82;;;;;;;14.94;33.65;95435.06;5006619;28;20132;-69
2022/01/18 08:54:05;;;;;;;205.48;167.70;;;;;;;14.96;33.51;95435.41;5006008;28;20049;-68
2022/01/18 08:56:31;;;;;;;196.80;159.88;;;;;;;14.97;33.64;95439.63;5007945;28;20139;-67
2022/01/18 08:58:57;;;;;;;196.50;161.75;;;;;;;14.95;33.57;95437.31;4988131;28;20049;-68
2022/01/18 09:01:22;;;;;;;189.07;155.30;;;;;;;14.96;33.58;95441.56;5004646;28;20042;-68
2022/01/18 09:03:50;;;;;;;193.23;159.63;;;;;;;14.97;33.54;95439.63;5010294;28;20041;-68
2022/01/18 09:06:17;;;;;;;193.05;160.05;;;;;;;14.96;33.69;95446.94;5004088;28;20046;-68
2022/01/18 09:08:43;;;;;;;191.52;156.68;;;;;;;14.97;33.94;95439.63;5003601;28;20049;-68
2022/01/18 09:11:11;;;;;;;199.80;164.60;;;;;;;14.93;33.77;95436.22;5001860;28;20487;-68
2022/01/18 09:13:38;;;;;;;201.52;164.43;;;;;;;14.89;33.87;95428.19;5003794;28;20125;-68
2022/01/18 09:16:06;;;;;;;188.65;153.95;;;;;;;14.87;33.91;95427.81;5004220;28;20064;-68
2022/01/18 09:18:34;;;;;;;191.60;156.45;;;;;;;14.83;33.84;95427.84;5006056;28;20069;-67
2022/01/18 09:21:00;;;;;;;200.85;162.02;;;;;;;14.83;34.15;95432.47;5004795;28;20281;-68
2022/01/18 09:23:26;;;;;;;191.35;157.82;;;;;;;14.85;34.04;95434.75;5006414;28;20057;-68
2022/01/18 09:25:52;;;;;;;204.38;166.80;;;;;;;14.88;34.01;95442.03;5006870;28;20041;-68
2022/01/18 09:28:17;;;;;;;197.65;163.25;;;;;;;14.82;34.37;95436.31;5009662;28;20073;-68
2022/01/18 09:30:43;;;;;;;191.13;156.73;;;;;;;14.79;34.30;95445.19;4996023;28;20056;-67
2022/01/18 09:33:08;;;;;;;196.73;160.85;;;;;;;14.80;34.05;95449.41;5009755;28;20494;-69
2022/01/18 09:35:36;;;;;;;192.52;157.57;;;;;;;14.78;34.22;95449.03;5005350;28;20879;-67
2022/01/18 09:38:02;;;;;;;194.35;157.52;;;;;;;14.75;34.36;95442.53;5013661;28;20045;-68
2022/01/18 09:40:28;;;;;;;193.13;158.60;;;;;;;14.75;34.34;95450.59;5007135;28;20056;-67
2022/01/18 09:42:58;;;;;;;188.38;151.90;;;;;;;14.72;34.35;95451.41;5008056;28;20049;-67
2022/01/18 09:45:27;;;;;;;190.13;153.57;;;;;;;14.70;34.34;95456.41;5008549;28;20483;-67
2022/01/18 09:47:54;;;;;;;;;;;;;;;14.66;34.55;95455.69;5005417;28;20053;-68
2022/01/18 09:50:27;;;;;;;197.25;156.02;;;;;;;14.58;34.72;95451.50;5008500;28;20017;-68
2022/01/18 09:52:55;;;;;;;198.05;158.07;;;;;;;14.52;34.67;95452.31;4997636;28;20050;-68
2022/01/18 09:55:23;;;;;;;198.50;160.95;;;;;;;14.53;34.75;95457.31;5010757;28;20045;-68
2022/01/18 09:57:50;;;;;;;194.30;157.40;;;;;;;14.54;34.61;95456.16;5005001;28;20045;-67
2022/01/18 10:00:17;;;;;;;197.43;158.10;;;;;;;14.55;34.75;95452.28;4995117;28;20049;-67
2022/01/18 10:02:43;;;;;;;195.68;157.68;;;;;;;14.45;34.65;95445.06;5007993;28;20138;-68
2022/01/18 10:05:32;;;;;;;196.38;158.30;;;;;;;14.45;34.66;95439.69;5007049;28;20060;-67
2022/01/18 10:08:01;;;;;;;194.35;155.32;;;;;;;14.41;34.49;95439.69;4981484;28;20110;-67
2022/01/18 10:10:45;;;;;;;191.98;152.73;;;;;;;14.47;34.61;95440.03;5004299;28;20485;-67
2022/01/18 10:13:20;;;;;;;194.75;155.73;;;;;;;14.57;34.43;95441.13;5005427;28;20038;-68
2022/01/18 10:16:05;;;;;;;207.88;165.75;;;;;;;14.72;34.02;95439.84;5002537;28;21349;-67
2022/01/18 10:18:46;;;;;;;194.02;155.90;;;;;;;14.82;33.92;95441.69;4994270;28;20053;-68
2022/01/18 10:21:15;;;;;;;193.10;155.15;;;;;;;14.85;33.87;95435.53;5007225;28;20161;-68
2022/01/18 10:23:49;;;;;;;197.65;158.57;;;;;;;14.88;33.71;95429.34;5008613;28;20071;-68
2022/01/18 10:26:17;;;;;;;198.32;159.25;;;;;;;14.86;34.00;95428.97;5006025;28;20077;-67
2022/01/18 10:28:43;;;;;;;194.45;156.27;;;;;;;14.83;33.94;95427.84;5007815;28;20042;-68
2022/01/18 10:31:34;;;;;;;196.20;159.60;;;;;;;14.79;34.01;95418.25;5005379;28;20037;-68
2022/01/18 10:34:22;;;;;;;194.68;157.20;;;;;;;14.76;34.03;95417.13;5007493;28;20111;-68
2022/01/18 10:37:10;;;;;;;187.13;150.13;;;;;;;14.75;33.99;95415.59;5005562;28;20041;-67
2022/01/18 10:39:41;;;;;;;196.93;158.63;;;;;;;14.75;34.18;95407.50;5002735;28;20045;-68
2022/01/18 10:42:25;;;;;;;193.30;156.02;;;;;;;14.77;34.09;95407.88;5005834;28;20982;-67
2022/01/18 10:45:04;;;;;;;191.10;154.10;;;;;;;14.77;34.00;95397.13;5003644;28;20046;-68
2022/01/18 10:47:31;;;;;;;191.82;155.30;;;;;;;14.78;33.98;95382.47;5003402;28;20316;-68
2022/01/18 10:50:12;;;;;;;194.05;156.32;;;;;;;14.77;33.86;95393.66;5006387;28;20060;-68
2022/01/18 10:52:38;;;;;;;192.57;155.75;;;;;;;14.71;33.67;95384.47;5007328;28;20243;-67
2022/01/18 10:55:05;;;;;;;195.30;158.48;;;;;;;14.58;34.25;95380.75;5005983;28;20160;-68
2022/01/18 10:57:39;;;;;;;194.15;157.50;;;;;;;14.61;34.10;95375.31;5004423;28;20037;-68
2022/01/18 11:00:05;;;;;;;200.63;161.18;;;;;;;14.64;34.01;95371.84;5006345;28;20049;-68
2022/01/18 11:02:37;;;;;;;196.68;159.85;;;;;;;14.59;34.24;95368.81;5005640;28;20037;-67
2022/01/18 11:05:30;;;;;;;197.18;158.05;;;;;;;14.66;34.27;95369.50;5004686;28;20445;-68
2022/01/18 11:08:00;;;;;;;193.38;154.82;;;;;;;14.71;33.92;95371.00;5006681;28;20108;-68
2022/01/18 11:10:31;;;;;;;197.05;158.45;;;;;;;14.73;34.14;95374.06;4988708;28;20127;-68
2022/01/18 11:13:34;;;;;;;193.80;155.45;;;;;;;14.66;34.08;95372.22;5008221;28;20054;-68
2022/01/18 11:16:05;;;;;;;204.13;162.77;;;;;;;14.69;34.06;95359.88;5008657;28;20060;-68
2022/01/18 11:18:36;;;;;;;190.80;153.07;;;;;;;14.68;34.14;95359.13;4996195;28;20454;-68
2022/01/18 11:21:02;;;;;;;194.60;156.43;;;;;;;14.68;34.24;95351.03;5006030;28;20494;-67
2022/01/18 11:23:30;;;;;;;196.65;159.98;;;;;;;14.67;34.05;95352.19;5003835;28;20555;-68
2022/01/18 11:25:58;;;;;;;197.70;158.85;;;;;;;14.65;34.19;95348.38;5004779;28;20069;-67
2022/01/18 11:28:25;;;;;;;199.57;162.15;;;;;;;14.70;34.26;95339.88;5003816;28;20049;-67
2022/01/18 11:30:51;;;;;;;190.25;153.73;;;;;;;14.71;33.87;95338.69;5004807;28;20611;-67
2022/01/18 11:33:20;;;;;;;204.00;165.80;;;;;;;14.74;34.01;95333.28;5005693;28;20049;-67
2022/01/18 11:35:58;;;;;;;213.35;171.45;;;;;;;14.80;33.85;95329.00;5001611;28;20141;-67
2022/01/18 11:38:48;;;;;;;191.52;154.73;;;;;;;14.83;33.59;95333.56;5006021;28;20512;-67
2022/01/18 11:41:40;;;;;;;196.05;159.00;;;;;;;14.83;33.79;95335.50;5005790;28;20051;-67
2022/01/18 11:44:17;;;;;;;192.25;156.20;;;;;;;14.80;33.68;95334.38;5004250;28;20042;-67
2022/01/18 11:46:48;;;;;;;193.45;156.23;;;;;;;14.78;33.66;95331.31;5002835;28;20068;-67
2022/01/18 11:49:16;;;;;;;191.95;155.70;;;;;;;14.68;33.90;95332.19;5006539;28;20567;-67
2022/01/18 11:51:47;;;;;;;195.13;159.88;;;;;;;14.72;33.88;95340.22;5010429;28;20408;-66
2022/01/18 11:57:03;;;;;;;191.75;154.30;;;;;;;14.69;33.94;95325.63;5008469;28;20345;-67
2022/01/18 11:59:38;;;;;;;194.05;156.40;;;;;;;14.75;33.79;95329.44;5007903;28;20038;-67
2022/01/18 12:02:05;;;;;;;194.18;157.50;;;;;;;14.78;33.80;95333.25;4992786;28;20045;-67
2022/01/18 12:04:48;;;;;;;196.70;158.63;;;;;;;14.75;33.74;95334.03;5007434;28;20054;-67
2022/01/18 12:07:32;;;;;;;193.75;155.98;;;;;;;14.75;33.72;95326.72;5011392;28;20498;-67
2022/01/18 12:09:58;;;;;;;196.15;158.43;;;;;;;14.78;33.91;95328.63;5010952;28;20081;-68
2022/01/18 12:12:42;;;;;;;192.20;154.27;;;;;;;14.79;33.88;95337.47;5012252;28;20537;-67
2022/01/18 12:15:16;;;;;;;191.57;154.18;;;;;;;14.78;33.84;95325.94;5012345;28;20051;-67
2022/01/18 12:17:54;;;;;;;192.45;154.13;;;;;;;14.79;33.81;95329.38;5009162;28;20053;-67
2022/01/18 12:20:34;;;;;;;197.73;160.35;;;;;;;14.79;33.71;95326.69;5007050;28;20104;-68